createdAt,value
2022-08-08T00:00:50.359Z,19.06
2022-08-08T00:03:31.520Z,19.09
2022-08-08T00:06:03.781Z,19.03
2022-08-08T00:08:49.856Z,18.97
2022-08-08T00:11:46.950Z,18.92
2022-08-08T00:14:59.846Z,18.82
2022-08-08T00:18:03.072Z,18.85
2022-08-08T00:20:36.341Z,18.77
2022-08-08T00:23:08.280Z,18.60
2022-08-08T00:25:46.238Z,18.52
2022-08-08T00:28:34.579Z,18.49
2022-08-08T00:32:16.333Z,18.54
2022-08-08T00:34:28.071Z,18.65
2022-08-08T00:37:03.489Z,18.68
2022-08-08T00:41:07.048Z,18.74
2022-08-08T00:42:46.227Z,18.78
2022-08-08T00:45:41.459Z,18.92
2022-08-08T00:48:29.825Z,19.01
2022-08-08T00:51:39.034Z,19.08
2022-08-08T00:54:28.676Z,19.17
2022-08-08T00:57:23.414Z,19.30
2022-08-08T01:00:22.163Z,19.37
2022-08-08T01:03:58.227Z,19.39
2022-08-08T01:06:47.596Z,19.47
2022-08-08T01:09:41.274Z,19.53
2022-08-08T01:12:56.377Z,19.56
2022-08-08T01:15:54.444Z,19.62
2022-08-08T01:18:52.427Z,19.61
2022-08-08T01:22:10.090Z,19.62
2022-08-08T01:24:50.928Z,19.66
2022-08-08T01:27:44.023Z,19.74
2022-08-08T01:30:35.745Z,19.77
2022-08-08T01:33:23.445Z,19.76
2022-08-08T01:36:22.968Z,19.69
2022-08-08T01:39:01.264Z,19.68
2022-08-08T01:41:34.299Z,19.78
2022-08-08T01:44:16.788Z,19.76
2022-08-08T01:46:53.015Z,19.79
2022-08-08T01:49:37.921Z,19.71
2022-08-08T01:54:04.109Z,19.63
2022-08-08T01:55:26.699Z,19.58
2022-08-08T01:58:32.000Z,19.53
2022-08-08T02:01:54.814Z,19.49
2022-08-08T02:04:58.724Z,19.44
2022-08-08T02:07:41.413Z,19.42
2022-08-08T02:10:13.859Z,19.33
2022-08-08T02:13:07.056Z,19.23
2022-08-08T02:16:01.235Z,18.97
2022-08-08T02:18:39.497Z,18.92
2022-08-08T02:21:48.273Z,18.87
2022-08-08T02:24:22.748Z,18.85
2022-08-08T02:27:07.027Z,18.86
2022-08-08T02:29:54.162Z,18.86
2022-08-08T02:32:32.295Z,18.86
2022-08-08T02:35:08.488Z,18.85
2022-08-08T02:38:05.731Z,18.82
2022-08-08T02:40:39.666Z,18.88
2022-08-08T02:44:38.225Z,18.95
2022-08-08T02:47:01.476Z,18.83
2022-08-08T02:50:02.716Z,18.80
2022-08-08T02:52:41.540Z,18.87
2022-08-08T02:55:19.797Z,18.90
2022-08-08T02:58:40.838Z,18.93
2022-08-08T03:01:19.154Z,18.97
2022-08-08T03:05:03.242Z,18.97
2022-08-08T03:07:02.214Z,18.98
2022-08-08T03:10:31.451Z,19.00
2022-08-08T03:13:33.953Z,19.07
2022-08-08T03:16:35.425Z,19.10
2022-08-08T03:19:20.052Z,19.11
2022-08-08T03:21:58.645Z,19.06
2022-08-08T03:24:28.915Z,19.03
2022-08-08T03:27:09.736Z,19.04
2022-08-08T03:29:54.601Z,19.12
2022-08-08T03:32:41.440Z,19.17
2022-08-08T03:35:10.361Z,19.20
2022-08-08T03:38:53.402Z,19.23
2022-08-08T03:40:30.049Z,19.28
2022-08-08T03:43:16.760Z,19.29
2022-08-08T03:46:05.286Z,19.30
2022-08-08T03:49:09.561Z,19.29
2022-08-08T03:51:26.574Z,19.26
2022-08-08T03:54:09.893Z,19.20
2022-08-08T03:56:43.566Z,19.22
2022-08-08T03:59:22.580Z,19.24
2022-08-08T04:02:12.885Z,19.26
2022-08-08T04:04:39.966Z,19.36
2022-08-08T04:07:09.175Z,19.39
2022-08-08T04:09:59.149Z,19.43
2022-08-08T04:12:25.487Z,19.40
2022-08-08T04:14:54.206Z,19.38
2022-08-08T04:17:58.541Z,19.33
2022-08-08T04:20:10.949Z,19.45
2022-08-08T04:22:38.525Z,19.56
2022-08-08T04:25:08.008Z,19.61
2022-08-08T04:28:02.977Z,19.72
2022-08-08T04:30:24.493Z,19.83
2022-08-08T04:32:52.375Z,19.80
2022-08-08T04:35:22.779Z,19.80
2022-08-08T04:37:52.092Z,19.95
2022-08-08T04:40:24.258Z,19.99
2022-08-08T04:42:57.244Z,20.02
2022-08-08T04:45:26.261Z,20.08
2022-08-08T04:47:54.836Z,20.08
2022-08-08T04:50:24.197Z,20.08
2022-08-08T04:52:58.530Z,20.13
2022-08-08T04:55:26.299Z,20.23
2022-08-08T04:58:09.498Z,20.28
2022-08-08T05:00:39.063Z,20.32
2022-08-08T05:03:06.414Z,20.33
2022-08-08T05:05:45.455Z,20.45
2022-08-08T05:08:13.949Z,20.49
2022-08-08T05:10:41.114Z,20.52
2022-08-08T05:13:17.424Z,20.48
2022-08-08T05:16:51.431Z,20.44
2022-08-08T05:18:33.645Z,20.39
2022-08-08T05:21:05.799Z,20.53
2022-08-08T05:23:41.149Z,20.61
2022-08-08T05:26:14.299Z,20.53
2022-08-08T05:28:56.243Z,20.58
2022-08-08T05:32:04.165Z,20.69
2022-08-08T05:34:26.507Z,20.63
2022-08-08T05:36:56.514Z,20.71
2022-08-08T05:39:25.315Z,20.60
2022-08-08T05:41:58.917Z,20.60
2022-08-08T05:44:31.111Z,20.74
2022-08-08T05:47:02.912Z,20.92
2022-08-08T05:49:31.119Z,21.04
2022-08-08T05:51:58.816Z,21.12
2022-08-08T05:54:43.304Z,21.48
2022-08-08T05:57:16.284Z,21.62
2022-08-08T06:00:23.507Z,21.66
2022-08-08T06:03:24.617Z,21.90
2022-08-08T06:05:59.572Z,21.89
2022-08-08T06:08:34.458Z,22.20
2022-08-08T06:11:04.215Z,22.46
2022-08-08T06:13:35.746Z,22.64
2022-08-08T06:16:04.292Z,22.75
2022-08-08T06:18:36.503Z,22.69
2022-08-08T06:21:27.890Z,22.59
2022-08-08T06:24:02.550Z,22.55
2022-08-08T06:26:44.428Z,22.47
2022-08-08T06:29:48.509Z,22.54
2022-08-08T06:32:10.677Z,22.42
2022-08-08T06:34:56.344Z,22.19
2022-08-08T06:37:39.650Z,22.28
2022-08-08T06:40:16.105Z,22.35
2022-08-08T06:42:52.090Z,22.43
2022-08-08T06:45:23.711Z,22.38
2022-08-08T06:47:52.176Z,22.40
2022-08-08T06:50:32.019Z,22.39
2022-08-08T06:53:13.840Z,22.60
2022-08-08T06:55:47.061Z,22.61
2022-08-08T06:58:15.240Z,22.47
2022-08-08T07:00:49.457Z,22.53
2022-08-08T07:03:52.020Z,22.60
2022-08-08T07:06:27.016Z,22.75
2022-08-08T07:08:59.514Z,23.07
2022-08-08T07:11:51.228Z,22.93
2022-08-08T07:14:22.012Z,22.79
2022-08-08T07:17:14.421Z,23.21
2022-08-08T07:19:59.853Z,23.45
2022-08-08T07:23:02.337Z,23.83
2022-08-08T07:25:34.833Z,24.03
2022-08-08T07:28:13.640Z,24.05
2022-08-08T07:30:47.180Z,24.43
2022-08-08T07:33:17.738Z,24.92
2022-08-08T07:35:47.333Z,25.15
2022-08-08T07:38:21.130Z,24.99
2022-08-08T07:40:59.013Z,24.55
2022-08-08T07:43:37.390Z,24.50
2022-08-08T07:46:23.961Z,24.55
2022-08-08T07:48:54.562Z,24.44
2022-08-08T07:51:44.661Z,24.76
2022-08-08T07:54:10.629Z,24.95
2022-08-08T07:57:09.058Z,25.46
2022-08-08T07:59:52.739Z,25.88
2022-08-08T08:02:36.387Z,26.16
2022-08-08T08:05:20.522Z,26.28
2022-08-08T08:07:54.677Z,26.98
2022-08-08T08:10:30.382Z,27.14
2022-08-08T08:13:25.296Z,26.93
2022-08-08T08:16:03.312Z,27.54
2022-08-08T08:18:39.071Z,27.67
2022-08-08T08:21:20.234Z,27.24
2022-08-08T08:24:07.977Z,27.55
2022-08-08T08:26:38.373Z,27.18
2022-08-08T08:29:06.257Z,27.03
2022-08-08T08:31:41.762Z,27.25
2022-08-08T08:34:09.914Z,27.40
2022-08-08T08:36:38.269Z,27.44
2022-08-08T08:39:07.589Z,27.33
2022-08-08T08:41:45.924Z,27.46
2022-08-08T08:44:16.429Z,27.29
2022-08-08T08:46:58.674Z,27.31
2022-08-08T08:49:30.680Z,27.22
2022-08-08T08:52:03.821Z,27.21
2022-08-08T08:54:35.118Z,26.86
2022-08-08T08:57:03.590Z,26.82
2022-08-08T09:00:01.439Z,26.62
2022-08-08T09:02:34.658Z,26.32
2022-08-08T09:05:04.334Z,26.15
2022-08-08T09:07:39.203Z,25.85
2022-08-08T09:10:22.679Z,25.65
2022-08-08T09:12:56.116Z,25.41
2022-08-08T09:15:40.746Z,25.36
2022-08-08T09:18:11.135Z,25.19
2022-08-08T09:22:00.137Z,25.08
2022-08-08T09:23:33.305Z,25.13
2022-08-08T09:26:21.740Z,25.18
2022-08-08T09:28:50.051Z,25.67
2022-08-08T09:32:03.758Z,25.80
2022-08-08T09:34:34.541Z,25.64
2022-08-08T09:37:39.536Z,25.95
2022-08-08T09:40:10.727Z,26.13
2022-08-08T09:42:51.667Z,26.58
2022-08-08T09:46:01.736Z,26.50
2022-08-08T09:48:21.353Z,26.17
2022-08-08T09:50:55.796Z,26.30
2022-08-08T09:53:53.258Z,26.28
2022-08-08T09:56:21.740Z,26.17
2022-08-08T09:59:31.900Z,26.09
2022-08-08T10:02:02.130Z,26.00
2022-08-08T10:04:42.457Z,25.82
2022-08-08T10:07:16.498Z,25.85
2022-08-08T10:09:59.984Z,25.93
2022-08-08T10:12:36.082Z,26.05
2022-08-08T10:15:21.283Z,26.20
2022-08-08T10:18:07.442Z,26.11
2022-08-08T10:20:57.438Z,26.12
2022-08-08T10:23:57.928Z,25.94
2022-08-08T10:26:59.660Z,25.72
2022-08-08T10:29:56.595Z,25.69
2022-08-08T10:32:38.244Z,25.54
2022-08-08T10:35:24.444Z,25.24
2022-08-08T10:38:05.809Z,24.99
2022-08-08T10:40:37.629Z,24.76
2022-08-08T10:43:06.348Z,24.55
2022-08-08T10:45:55.663Z,24.83
2022-08-08T10:48:57.738Z,24.69
2022-08-08T10:51:31.679Z,24.39
2022-08-08T10:54:24.788Z,24.42
2022-08-08T10:56:59.710Z,24.51
2022-08-08T10:59:30.887Z,24.67
2022-08-08T11:01:59.281Z,24.44
2022-08-08T11:04:38.733Z,24.19
2022-08-08T11:07:07.293Z,24.25
2022-08-08T11:09:34.921Z,24.30
2022-08-08T11:12:12.323Z,24.50
2022-08-08T11:14:57.109Z,24.34
2022-08-08T11:17:59.534Z,24.25
2022-08-08T11:20:18.279Z,24.36
2022-08-08T11:22:51.925Z,24.68
2022-08-08T11:25:43.700Z,24.09
2022-08-08T11:28:13.361Z,23.98
2022-08-08T11:30:50.603Z,24.33
2022-08-08T11:33:35.325Z,24.75
2022-08-08T11:36:14.217Z,24.42
2022-08-08T11:38:54.188Z,23.98
2022-08-08T11:41:24.588Z,23.96
2022-08-08T11:43:58.154Z,23.36
2022-08-08T11:46:28.114Z,23.27
2022-08-08T11:48:58.079Z,23.07
2022-08-08T11:51:29.910Z,22.97
2022-08-08T11:54:04.097Z,22.83
2022-08-08T11:56:34.404Z,23.12
2022-08-08T11:59:09.500Z,23.36
2022-08-08T12:01:37.854Z,23.42
2022-08-08T12:04:07.776Z,22.98
2022-08-08T12:06:34.900Z,22.94
2022-08-08T12:09:07.435Z,23.64
2022-08-08T12:11:41.282Z,23.56
2022-08-08T12:14:11.015Z,23.11
2022-08-08T12:16:49.556Z,23.38
2022-08-08T12:19:20.625Z,23.22
2022-08-08T12:22:09.453Z,23.23
2022-08-08T12:24:51.473Z,23.04
2022-08-08T12:27:21.488Z,22.66
2022-08-08T12:29:59.935Z,23.26
2022-08-08T12:32:31.378Z,23.08
2022-08-08T12:35:13.060Z,23.52
2022-08-08T12:38:00.946Z,23.38
2022-08-08T12:40:56.957Z,23.17
2022-08-08T12:43:46.159Z,22.96
2022-08-08T12:46:25.157Z,23.21
2022-08-08T12:51:58.457Z,23.40
2022-08-08T12:54:36.533Z,23.09
2022-08-08T12:57:17.029Z,23.44
2022-08-08T13:00:05.748Z,23.60
2022-08-08T13:02:42.017Z,23.72
2022-08-08T13:05:27.056Z,24.06
2022-08-08T13:08:17.805Z,23.72
2022-08-08T13:10:56.396Z,23.83
2022-08-08T13:13:37.301Z,24.02
2022-08-08T13:16:21.469Z,24.17
2022-08-08T13:18:56.940Z,24.18
2022-08-08T13:21:26.973Z,24.39
2022-08-08T13:24:20.864Z,24.57
2022-08-08T13:27:10.800Z,24.19
2022-08-08T13:29:54.359Z,24.20
2022-08-08T13:32:25.462Z,24.09
2022-08-08T13:34:55.433Z,23.68
2022-08-08T13:37:51.870Z,24.39
2022-08-08T13:40:10.921Z,24.69
2022-08-08T13:42:38.510Z,25.20
2022-08-08T13:45:06.543Z,24.76
2022-08-08T13:47:37.098Z,24.81
2022-08-08T13:50:36.902Z,24.55
2022-08-08T13:52:56.615Z,24.92
2022-08-08T13:55:29.696Z,25.27
2022-08-08T13:58:08.302Z,25.15
2022-08-08T14:00:40.488Z,25.10
2022-08-08T14:03:47.337Z,24.54
2022-08-08T14:06:20.453Z,25.04
2022-08-08T14:08:58.230Z,24.85
2022-08-08T14:11:29.433Z,24.41
2022-08-08T14:13:59.440Z,24.01
2022-08-08T14:16:28.865Z,23.60
2022-08-08T14:18:57.940Z,23.43
2022-08-08T14:21:48.799Z,23.26
2022-08-08T14:24:33.969Z,23.36
2022-08-08T14:27:01.971Z,23.26
2022-08-08T14:29:39.621Z,23.58
2022-08-08T14:32:11.737Z,23.65
2022-08-08T14:34:41.918Z,23.79
2022-08-08T14:37:13.048Z,23.60
2022-08-08T14:39:54.195Z,23.59
2022-08-08T14:42:35.284Z,23.17
2022-08-08T14:45:09.977Z,23.02
2022-08-08T14:47:51.222Z,23.05
2022-08-08T14:50:38.110Z,22.97
2022-08-08T14:53:13.650Z,22.77
2022-08-08T14:55:42.916Z,22.55
2022-08-08T14:58:16.693Z,22.48
2022-08-08T15:00:48.714Z,22.61
2022-08-08T15:03:16.966Z,22.59
2022-08-08T15:05:53.232Z,22.94
2022-08-08T15:08:34.295Z,22.73
2022-08-08T15:11:11.465Z,22.66
2022-08-08T15:14:00.959Z,22.64
2022-08-08T15:16:28.186Z,22.65
2022-08-08T15:18:55.643Z,22.92
2022-08-08T15:21:22.724Z,22.96
2022-08-08T15:23:54.958Z,23.03
2022-08-08T15:26:25.536Z,22.83
2022-08-08T15:28:54.336Z,22.91
2022-08-08T15:31:55.933Z,22.94
2022-08-08T15:34:29.067Z,23.28
2022-08-08T15:37:03.131Z,23.06
2022-08-08T15:39:37.949Z,22.97
2022-08-08T15:42:17.786Z,22.99
2022-08-08T15:44:57.582Z,23.12
2022-08-08T15:47:24.898Z,22.85
2022-08-08T15:49:53.147Z,22.67
2022-08-08T15:52:22.079Z,22.84
2022-08-08T15:54:51.681Z,22.97
2022-08-08T15:57:20.013Z,22.90
2022-08-08T16:00:25.372Z,22.59
2022-08-08T16:02:44.651Z,22.66
2022-08-08T16:05:23.527Z,22.30
2022-08-08T16:07:53.908Z,21.93
2022-08-08T16:13:09.021Z,21.84
2022-08-08T16:13:32.090Z,21.73
2022-08-08T16:16:13.306Z,21.83
2022-08-08T16:18:56.828Z,21.55
2022-08-08T16:21:31.642Z,21.70
2022-08-08T16:24:02.193Z,21.82
2022-08-08T16:26:34.816Z,21.86
2022-08-08T16:29:08.006Z,21.83
2022-08-08T16:31:48.466Z,21.88
2022-08-08T16:34:21.354Z,21.71
2022-08-08T16:36:52.752Z,21.41
2022-08-08T16:39:59.718Z,21.53
2022-08-08T16:42:13.892Z,21.39
2022-08-08T16:44:47.331Z,21.39
2022-08-08T16:47:40.488Z,21.16
2022-08-08T16:50:14.117Z,20.99
2022-08-08T16:55:07.214Z,20.99
2022-08-08T16:55:56.003Z,21.22
2022-08-08T16:58:26.703Z,21.17
2022-08-08T17:00:57.901Z,21.03
2022-08-08T17:03:59.287Z,21.11
2022-08-08T17:06:35.756Z,21.05
2022-08-08T17:09:00.585Z,20.99
2022-08-08T17:11:38.932Z,21.05
2022-08-08T17:14:17.960Z,20.60
2022-08-08T17:16:57.204Z,20.60
2022-08-08T17:19:29.836Z,20.49
2022-08-08T17:22:01.209Z,20.49
2022-08-08T17:24:30.523Z,20.35
2022-08-08T17:26:59.409Z,20.21
2022-08-08T17:29:27.575Z,20.00
2022-08-08T17:31:57.820Z,19.78
2022-08-08T17:34:37.063Z,19.61
2022-08-08T17:37:13.781Z,19.62
2022-08-08T17:40:04.028Z,19.35
2022-08-08T17:42:28.457Z,19.31
2022-08-08T17:44:58.215Z,19.29
2022-08-08T17:47:28.076Z,19.26
2022-08-08T17:50:01.409Z,19.21
2022-08-08T17:52:35.456Z,19.10
2022-08-08T17:56:03.743Z,18.99
2022-08-08T17:57:53.518Z,19.01
2022-08-08T18:00:21.620Z,18.97
2022-08-08T18:03:08.792Z,18.89
2022-08-08T18:05:44.053Z,18.71
2022-08-08T18:08:24.824Z,18.54
2022-08-08T18:11:11.559Z,18.52
2022-08-08T18:13:42.709Z,18.39
2022-08-08T18:16:11.112Z,18.35
2022-08-08T18:18:45.270Z,18.25
2022-08-08T18:21:34.636Z,18.24
2022-08-08T18:24:17.231Z,18.17
2022-08-08T18:26:54.587Z,18.08
2022-08-08T18:29:32.938Z,18.06
2022-08-08T18:32:10.344Z,17.99
2022-08-08T18:34:42.723Z,17.91
2022-08-08T18:37:10.498Z,17.84
2022-08-08T18:39:57.622Z,17.80
2022-08-08T18:42:25.842Z,17.80
2022-08-08T18:44:57.289Z,17.77
2022-08-08T18:47:26.404Z,17.79
2022-08-08T18:49:58.764Z,17.84
2022-08-08T18:52:29.983Z,17.84
2022-08-08T18:55:00.115Z,17.89
2022-08-08T18:57:41.972Z,17.83
2022-08-08T19:00:16.591Z,17.83
2022-08-08T19:02:56.215Z,17.85
2022-08-08T19:05:32.265Z,17.89
2022-08-08T19:08:24.773Z,17.85
2022-08-08T19:11:01.841Z,17.82
2022-08-08T19:13:52.418Z,17.83
2022-08-08T19:16:20.204Z,17.80
2022-08-08T19:19:00.463Z,17.78
2022-08-08T19:21:33.499Z,17.80
2022-08-08T19:24:33.973Z,17.83
2022-08-08T19:27:03.019Z,17.90
2022-08-08T19:29:31.237Z,17.91
2022-08-08T19:32:01.334Z,17.94
2022-08-08T19:34:36.215Z,17.98
2022-08-08T19:37:16.495Z,17.90
2022-08-08T19:39:45.567Z,17.94
2022-08-08T19:42:13.602Z,17.87
2022-08-08T19:44:45.410Z,17.85
2022-08-08T19:47:14.935Z,17.87
2022-08-08T19:49:59.567Z,17.87
2022-08-08T19:52:35.277Z,17.86
2022-08-08T19:55:11.446Z,17.80
2022-08-08T19:57:44.267Z,17.85
2022-08-08T20:00:30.042Z,17.86
2022-08-08T20:03:15.252Z,17.89
2022-08-08T20:06:13.472Z,17.92
2022-08-08T20:08:36.691Z,18.03
2022-08-08T20:11:03.916Z,18.06
2022-08-08T20:14:11.774Z,18.04
2022-08-08T20:16:19.040Z,18.04
2022-08-08T20:18:52.833Z,18.11
2022-08-08T20:21:25.694Z,18.17
2022-08-08T20:23:57.992Z,18.21
2022-08-08T20:26:29.971Z,18.26
2022-08-08T20:28:59.268Z,18.29
2022-08-08T20:31:47.258Z,18.29
2022-08-08T20:34:29.544Z,18.22
2022-08-08T20:36:59.447Z,18.16
2022-08-08T20:39:27.367Z,18.16
2022-08-08T20:42:06.899Z,18.21
2022-08-08T20:44:37.486Z,18.32
2022-08-08T20:47:15.884Z,18.31
2022-08-08T20:49:50.952Z,18.35
2022-08-08T20:52:24.010Z,18.39
2022-08-08T20:54:51.954Z,18.43
2022-08-08T20:57:28.966Z,18.43
2022-08-08T20:59:57.346Z,18.42
2022-08-08T21:02:26.796Z,18.41
2022-08-08T21:05:00.257Z,18.34
2022-08-08T21:07:47.902Z,18.23
2022-08-08T21:10:20.692Z,18.23
2022-08-08T21:12:53.044Z,18.25
2022-08-08T21:16:04.009Z,18.24
2022-08-08T21:18:10.029Z,18.18
2022-08-08T21:20:39.880Z,18.19
2022-08-08T21:23:13.240Z,18.25
2022-08-08T21:25:48.959Z,18.28
2022-08-08T21:28:19.358Z,18.30
2022-08-08T21:31:05.863Z,18.31
2022-08-08T21:33:52.774Z,18.25
2022-08-08T21:36:21.888Z,18.29
2022-08-08T21:38:57.549Z,18.30
2022-08-08T21:41:38.481Z,18.38
2022-08-08T21:44:11.416Z,18.31
2022-08-08T21:48:07.509Z,18.31
2022-08-08T21:49:28.604Z,18.34
2022-08-08T21:54:32.315Z,18.29
2022-08-08T21:55:02.259Z,18.31
2022-08-08T21:57:43.104Z,18.24
2022-08-08T22:00:25.877Z,18.19
2022-08-08T22:02:53.716Z,18.21
2022-08-08T22:05:21.321Z,18.30
2022-08-08T22:07:49.824Z,18.33
2022-08-08T22:13:17.422Z,18.26
2022-08-08T22:15:58.931Z,18.29
2022-08-08T22:18:29.654Z,18.30
2022-08-08T22:21:14.632Z,18.25
2022-08-08T22:23:51.517Z,17.90
2022-08-08T22:26:29.621Z,17.22
2022-08-08T22:29:13.633Z,16.95
2022-08-08T22:31:58.223Z,16.82
2022-08-08T22:34:30.618Z,16.92
2022-08-08T22:36:57.980Z,16.98
2022-08-08T22:39:28.352Z,17.00
2022-08-08T22:42:14.050Z,17.00
2022-08-08T22:44:51.131Z,17.06
2022-08-08T22:47:18.602Z,17.06
2022-08-08T22:49:54.115Z,17.17
2022-08-08T22:52:33.619Z,17.21
2022-08-08T22:55:04.654Z,17.25
2022-08-08T22:57:44.109Z,17.29
2022-08-08T23:00:17.216Z,17.30
2022-08-08T23:02:50.361Z,17.37
2022-08-08T23:05:18.378Z,17.35
2022-08-08T23:07:56.975Z,17.33
2022-08-08T23:10:25.584Z,17.40
2022-08-08T23:12:54.707Z,17.40
2022-08-08T23:16:40.598Z,17.45
2022-08-08T23:18:11.543Z,17.50
2022-08-08T23:20:43.183Z,17.56
2022-08-08T23:23:14.286Z,17.60
2022-08-08T23:25:47.830Z,17.61
2022-08-08T23:28:18.200Z,17.64
2022-08-08T23:30:47.364Z,17.71
2022-08-08T23:33:19.427Z,17.69
2022-08-08T23:36:07.809Z,17.56
2022-08-08T23:38:44.186Z,17.43
2022-08-08T23:41:23.026Z,17.41
2022-08-08T23:43:56.357Z,17.37
2022-08-08T23:49:03.888Z,17.31
2022-08-08T23:49:14.894Z,17.19
2022-08-08T23:52:04.794Z,17.14
2022-08-08T23:54:41.430Z,16.93
2022-08-08T23:57:15.332Z,16.83
